METAR Data
IDs: Format: Raw Decoded Include TAF

Data at: 0009 UTC 26 Oct 2021

SCTB 252300Z 21004KT 140V270 CAVOK 28/02 Q1015